Time;durP1;ratioP1;P1;durP2;ratioP2;P2;SDS_P1;SDS_P2;PMS_P1;PMS_P2;Temp;Humidity;BMP_temperature;BMP_pressure;BME280_temperature;BME280_humidity;BME280_pressure;Samples;Min_cycle;Max_cycle;Signal;HPM_P1;HPM_P2
2022/05/18 04:01:40;;;;;;;8.07;6.43;;;15.50;99.90;;;;;;5445661;23;20499;-76
2022/05/18 04:04:08;;;;;;;8.30;6.23;;;15.50;99.90;;;;;;4965567;28;20478;-76
2022/05/18 04:06:35;;;;;;;14.27;6.47;;;15.40;99.90;;;;;;4966148;28;20507;-76
2022/05/18 04:09:01;;;;;;;8.83;6.67;;;15.40;99.90;;;;;;4966453;28;20460;-76
2022/05/18 04:11:28;;;;;;;10.43;5.83;;;15.40;99.90;;;;;;4966145;28;20576;-76
2022/05/18 04:13:55;;;;;;;10.83;6.97;;;15.40;99.90;;;;;;4966019;28;20462;-76
2022/05/18 04:16:22;;;;;;;7.60;5.10;;;15.40;99.90;;;;;;4965798;28;20543;-76
2022/05/18 04:18:50;;;;;;;7.27;6.50;;;15.50;99.90;;;;;;4965953;28;21346;-76
2022/05/18 04:21:17;;;;;;;7.50;6.70;;;15.50;99.90;;;;;;4966318;28;20484;-76
2022/05/18 04:23:44;;;;;;;6.97;6.03;;;15.40;99.90;;;;;;4966014;28;20850;-76
2022/05/18 04:26:11;;;;;;;9.30;6.53;;;15.40;99.90;;;;;;4965436;28;21039;-76
2022/05/18 04:28:38;;;;;;;7.63;6.83;;;15.40;99.90;;;;;;4966119;28;20563;-76
2022/05/18 04:31:05;;;;;;;10.43;6.77;;;15.40;99.90;;;;;;4965513;28;20926;-76
2022/05/18 04:33:32;;;;;;;7.80;7.00;;;15.40;99.90;;;;;;4965557;28;20469;-76
2022/05/18 04:36:02;;;;;;;8.33;6.57;;;15.40;99.90;;;;;;4965798;28;20468;-76
2022/05/18 04:38:29;;;;;;;12.30;7.17;;;15.40;99.90;;;;;;4966017;28;20504;-76
2022/05/18 04:40:57;;;;;;;12.67;7.27;;;15.30;99.90;;;;;;4969497;28;20488;-76
2022/05/18 04:43:24;;;;;;;9.23;6.80;;;15.40;99.90;;;;;;4969101;28;20902;-76
2022/05/18 04:45:52;;;;;;;8.80;7.20;;;15.40;99.90;;;;;;4968514;28;21226;-76
2022/05/18 04:48:21;;;;;;;9.63;7.10;;;15.40;99.90;;;;;;4969584;28;20467;-76
2022/05/18 04:50:48;;;;;;;8.37;6.80;;;15.40;99.90;;;;;;4969247;28;20858;-76
2022/05/18 04:53:17;;;;;;;8.87;6.90;;;15.50;99.90;;;;;;4969115;28;20461;-76
2022/05/18 04:55:45;;;;;;;8.33;6.90;;;15.50;99.90;;;;;;4968777;28;20475;-76
2022/05/18 04:58:12;;;;;;;8.03;6.30;;;15.50;99.90;;;;;;4968702;28;20968;-76
2022/05/18 05:00:40;;;;;;;13.67;7.73;;;15.50;99.90;;;;;;4968827;28;20492;-75
2022/05/18 05:03:07;;;;;;;11.07;6.50;;;15.60;99.90;;;;;;4968993;28;20461;-74
2022/05/18 05:05:34;;;;;;;8.47;6.63;;;15.60;99.90;;;;;;4968055;28;20584;-69
2022/05/18 05:08:00;;;;;;;7.60;6.87;;;15.60;99.90;;;;;;4968240;28;20500;-69
2022/05/18 05:10:29;;;;;;;12.97;8.20;;;15.60;99.90;;;;;;4968781;28;20463;-70
2022/05/18 05:12:56;;;;;;;9.80;7.50;;;15.60;99.90;;;;;;4969209;28;20468;-69
2022/05/18 05:15:23;;;;;;;9.40;6.90;;;15.60;99.90;;;;;;4968367;28;20464;-69
2022/05/18 05:17:50;;;;;;;7.90;7.03;;;15.60;99.90;;;;;;4968788;28;20460;-70
2022/05/18 05:20:17;;;;;;;8.83;6.80;;;15.60;99.90;;;;;;4968713;28;21037;-69
2022/05/18 05:22:44;;;;;;;9.27;6.90;;;15.70;99.90;;;;;;4968750;28;21454;-69
2022/05/18 05:25:11;;;;;;;9.03;7.33;;;15.70;99.90;;;;;;4967575;28;20463;-69
2022/05/18 05:27:39;;;;;;;8.20;6.73;;;15.70;99.90;;;;;;4968456;28;20855;-72
2022/05/18 05:30:07;;;;;;;11.80;6.93;;;15.70;99.90;;;;;;4968652;28;20932;-76
2022/05/18 05:32:34;;;;;;;8.57;7.00;;;15.70;99.90;;;;;;4968112;28;20480;-75
2022/05/18 05:35:01;;;;;;;10.80;7.13;;;15.80;99.90;;;;;;4967447;28;20452;-75
2022/05/18 05:37:28;;;;;;;10.67;7.40;;;15.90;99.90;;;;;;4968364;28;20213;-75
2022/05/18 05:39:56;;;;;;;14.07;7.17;;;15.90;99.90;;;;;;4968110;28;20568;-75
2022/05/18 05:42:22;;;;;;;11.90;6.70;;;16.00;99.90;;;;;;4968327;28;20477;-75
2022/05/18 05:44:51;;;;;;;8.67;7.00;;;16.00;99.90;;;;;;4967448;28;20472;-74
2022/05/18 05:47:18;;;;;;;9.00;7.57;;;16.00;99.90;;;;;;4968483;28;20924;-78
2022/05/18 05:49:45;;;;;;;9.40;8.03;;;16.00;99.90;;;;;;4969012;28;20464;-75
2022/05/18 05:52:12;;;;;;;8.07;7.30;;;16.10;99.90;;;;;;4968982;28;20484;-74
2022/05/18 05:54:39;;;;;;;10.63;7.40;;;16.00;99.90;;;;;;4966738;28;21216;-75
2022/05/18 05:57:07;;;;;;;10.10;6.37;;;16.10;99.90;;;;;;4968265;28;20493;-75
2022/05/18 05:59:35;;;;;;;8.47;7.13;;;16.10;99.90;;;;;;4968075;28;20512;-76
2022/05/18 06:02:08;;;;;;;8.37;6.90;;;16.10;99.90;;;;;;4967401;28;20579;-76
2022/05/18 06:04:37;;;;;;;9.10;6.67;;;16.10;99.90;;;;;;4967863;28;20465;-75
2022/05/18 06:07:04;;;;;;;10.63;8.00;;;16.20;99.90;;;;;;4967923;28;20497;-75
2022/05/18 06:09:31;;;;;;;11.20;7.00;;;16.30;99.90;;;;;;4966929;28;20460;-77
2022/05/18 06:11:58;;;;;;;10.80;7.63;;;16.30;99.90;;;;;;4966804;28;21152;-76
2022/05/18 06:14:25;;;;;;;7.60;6.80;;;16.30;99.90;;;;;;4965920;28;20955;-76
2022/05/18 06:16:52;;;;;;;11.97;7.00;;;16.40;99.90;;;;;;4966140;28;21121;-76
2022/05/18 06:19:20;;;;;;;20.27;7.30;;;16.40;99.90;;;;;;4967277;28;20981;-75
2022/05/18 06:21:49;;;;;;;9.13;6.70;;;16.50;99.90;;;;;;4965512;28;20484;-76
2022/05/18 06:24:15;;;;;;;9.90;7.10;;;16.50;99.90;;;;;;4966583;28;20564;-74
2022/05/18 06:26:43;;;;;;;8.77;6.50;;;16.60;99.90;;;;;;4966988;28;20499;-75
2022/05/18 06:29:10;;;;;;;8.80;5.83;;;16.70;99.90;;;;;;4966754;28;20453;-76
2022/05/18 06:31:37;;;;;;;13.40;6.67;;;16.70;99.90;;;;;;4967747;28;21012;-76
2022/05/18 06:34:04;;;;;;;8.50;6.77;;;16.80;99.90;;;;;;4967014;28;20496;-77
2022/05/18 06:36:34;;;;;;;8.10;5.60;;;16.90;99.90;;;;;;4967192;28;20805;-76
2022/05/18 06:39:01;;;;;;;8.60;5.27;;;17.00;99.90;;;;;;4968958;28;20887;-76
2022/05/18 06:41:28;;;;;;;7.33;5.60;;;17.00;99.90;;;;;;4967223;28;20479;-75
2022/05/18 06:43:57;;;;;;;9.90;6.43;;;17.10;99.90;;;;;;4966323;28;20970;-77
2022/05/18 06:46:26;;;;;;;8.03;5.83;;;17.20;99.90;;;;;;4966869;28;20475;-76
2022/05/18 06:48:53;;;;;;;7.67;5.80;;;17.30;99.90;;;;;;4967480;28;20556;-77
2022/05/18 06:51:22;;;;;;;6.90;5.57;;;17.40;99.90;;;;;;4966582;28;20486;-76
2022/05/18 06:53:52;;;;;;;7.27;5.60;;;17.40;99.90;;;;;;4966719;28;20547;-77
2022/05/18 06:56:20;;;;;;;7.87;5.10;;;17.60;99.90;;;;;;4965927;28;20953;-76
2022/05/18 06:58:48;;;;;;;8.80;4.50;;;17.60;99.90;;;;;;4966827;28;20453;-77
2022/05/18 07:01:15;;;;;;;7.60;4.50;;;17.70;99.90;;;;;;4965809;28;21012;-76
2022/05/18 07:03:43;;;;;;;5.43;4.17;;;17.80;99.90;;;;;;4966734;28;20552;-75
2022/05/18 07:06:09;;;;;;;6.87;4.57;;;17.90;99.90;;;;;;4965921;28;20538;-76
2022/05/18 07:08:37;;;;;;;5.47;4.60;;;18.00;99.90;;;;;;4966415;28;21030;-76
2022/05/18 07:11:06;;;;;;;7.03;5.23;;;18.20;99.90;;;;;;4966570;28;20563;-76
2022/05/18 07:13:34;;;;;;;8.27;4.60;;;18.20;99.90;;;;;;4966278;28;20472;-76
2022/05/18 07:16:02;;;;;;;10.67;5.13;;;18.40;99.90;;;;;;4966241;28;20466;-76
2022/05/18 07:18:31;;;;;;;5.70;4.60;;;18.50;99.90;;;;;;4966768;28;20463;-76
2022/05/18 07:20:58;;;;;;;5.90;4.50;;;18.60;99.90;;;;;;4966309;28;20492;-76
2022/05/18 07:23:25;;;;;;;6.73;4.53;;;18.70;99.90;;;;;;4966789;28;20733;-76
2022/05/18 07:25:52;;;;;;;5.37;4.53;;;18.80;99.90;;;;;;4966349;28;20460;-74
2022/05/18 07:28:21;;;;;;;6.60;4.30;;;18.90;99.90;;;;;;4966518;28;20587;-76
2022/05/18 07:30:48;;;;;;;5.13;4.33;;;19.00;99.90;;;;;;4966645;28;20488;-76
2022/05/18 07:33:15;;;;;;;6.07;4.00;;;19.10;99.90;;;;;;4966200;28;20991;-76
2022/05/18 07:35:42;;;;;;;9.60;4.43;;;19.10;99.90;;;;;;4965813;28;20471;-76
2022/05/18 07:38:10;;;;;;;5.37;3.80;;;19.20;99.90;;;;;;4966220;28;20535;-76
2022/05/18 07:40:36;;;;;;;8.30;4.40;;;19.30;99.90;;;;;;4965860;28;20840;-75
2022/05/18 07:43:04;;;;;;;4.43;3.87;;;19.50;99.90;;;;;;4966055;28;20488;-76
2022/05/18 07:45:33;;;;;;;5.53;3.83;;;19.60;99.90;;;;;;4965667;28;20471;-75
2022/05/18 07:48:00;;;;;;;9.90;4.40;;;19.60;99.90;;;;;;4966595;28;20496;-76
2022/05/18 07:50:27;;;;;;;13.93;3.90;;;19.80;99.90;;;;;;4966129;28;20563;-77
2022/05/18 07:52:57;;;;;;;9.73;3.73;;;19.90;99.90;;;;;;4965970;28;20627;-76
2022/05/18 07:55:24;;;;;;;4.73;3.40;;;20.00;99.90;;;;;;4965060;28;20465;-75
2022/05/18 07:57:51;;;;;;;5.30;3.30;;;20.10;99.90;;;;;;4966393;28;20457;-76
2022/05/18 08:00:19;;;;;;;7.60;3.37;;;20.30;99.90;;;;;;4966360;28;20561;-75
2022/05/18 08:02:47;;;;;;;5.20;3.40;;;20.40;99.90;;;;;;4966797;28;20468;-70
2022/05/18 08:05:14;;;;;;;4.93;3.63;;;20.50;99.90;;;;;;4965611;28;20471;-69
2022/05/18 08:07:45;;;;;;;8.40;4.00;;;20.70;99.90;;;;;;4966033;28;20530;-68
2022/05/18 08:15:46;;;;;;;5.77;3.57;;;21.10;99.90;;;;;;4969394;28;20436;-67
2022/05/18 08:18:15;;;;;;;5.80;3.80;;;21.10;99.90;;;;;;4969827;28;20464;-67
2022/05/18 08:20:42;;;;;;;5.50;3.40;;;21.20;99.90;;;;;;4970035;28;20588;-67
2022/05/18 08:23:09;;;;;;;4.90;3.00;;;21.50;99.90;;;;;;4969946;28;20464;-68
2022/05/18 08:25:37;;;;;;;5.97;3.43;;;21.60;99.90;;;;;;4967696;28;20456;-67
2022/05/18 08:28:05;;;;;;;4.60;3.00;;;21.70;99.90;;;;;;4968816;28;21026;-67
2022/05/18 08:30:32;;;;;;;12.73;6.17;;;21.80;99.90;;;;;;4969712;28;20603;-67
2022/05/18 08:32:59;;;;;;;6.17;2.80;;;22.00;99.90;;;;;;4969708;28;20926;-76
2022/05/18 08:35:28;;;;;;;4.50;3.07;;;22.10;99.90;;;;;;4968982;28;20496;-76
2022/05/18 08:37:56;;;;;;;3.73;3.20;;;22.20;99.90;;;;;;4969659;28;20532;-76
2022/05/18 08:40:44;;;;;;;5.20;3.30;;;22.40;99.90;;;;;;4969843;28;20599;-76
2022/05/18 08:43:16;;;;;;;5.37;3.33;;;22.50;99.90;;;;;;4969719;28;20464;-76
2022/05/18 08:45:47;;;;;;;6.47;3.30;;;22.60;99.90;;;;;;4969081;28;20482;-76
2022/05/18 08:48:24;;;;;;;3.80;3.00;;;22.70;99.90;;;;;;4969483;28;20495;-75
2022/05/18 08:50:55;;;;;;;5.00;3.10;;;22.70;99.90;;;;;;4969502;28;20566;-76
2022/05/18 08:53:32;;;;;;;5.97;3.00;;;22.90;99.90;;;;;;4969598;28;20467;-76
2022/05/18 08:56:04;;;;;;;4.90;2.97;;;23.00;99.90;;;;;;4968493;28;20551;-76
2022/05/18 08:58:40;;;;;;;4.63;2.80;;;23.20;99.90;;;;;;4969417;28;20568;-76
2022/05/18 09:01:12;;;;;;;5.00;3.33;;;23.20;99.90;;;;;;4968873;28;20610;-76
2022/05/18 09:03:42;;;;;;;6.60;3.00;;;23.20;99.90;;;;;;4969105;28;20465;-75
2022/05/18 09:06:25;;;;;;;3.97;2.70;;;23.30;99.90;;;;;;4968088;28;20457;-76
2022/05/18 09:11:40;;;;;;;4.33;2.90;;;23.60;99.90;;;;;;4967815;28;20461;-76
2022/05/18 09:14:10;;;;;;;3.83;3.03;;;23.70;99.90;;;;;;4968276;28;20467;-75
2022/05/18 09:16:41;;;;;;;3.07;2.77;;;23.80;99.90;;;;;;4968778;28;20456;-76
2022/05/18 09:19:18;;;;;;;7.17;3.17;;;24.00;99.90;;;;;;4968924;28;20492;-76
2022/05/18 09:21:58;;;;;;;3.27;2.97;;;24.10;99.90;;;;;;4968698;28;20483;-75
2022/05/18 09:24:38;;;;;;;3.80;2.67;;;24.20;99.90;;;;;;4966475;28;20467;-75
2022/05/18 09:27:34;;;;;;;4.27;2.50;;;24.20;99.90;;;;;;4968695;28;20466;-68
2022/05/18 09:30:10;;;;;;;4.50;3.00;;;24.30;99.90;;;;;;4968429;28;20472;-67
2022/05/18 09:32:53;;;;;;;3.77;2.70;;;24.30;99.90;;;;;;4968716;28;20476;-67
2022/05/18 09:35:31;;;;;;;3.70;2.70;;;24.40;99.90;;;;;;4967428;28;20972;-69
2022/05/18 09:38:05;;;;;;;4.43;2.70;;;24.40;99.90;;;;;;4968460;28;20484;-68
2022/05/18 09:40:36;;;;;;;5.13;2.80;;;24.50;99.90;;;;;;4968461;28;20570;-68
2022/05/18 09:43:08;;;;;;;5.87;3.03;;;24.70;99.90;;;;;;4968545;28;20840;-72
2022/05/18 09:45:38;;;;;;;3.50;3.20;;;24.70;99.90;;;;;;4967340;28;20977;-68
2022/05/18 09:48:12;;;;;;;2.80;2.50;;;24.80;99.90;;;;;;4968312;28;20602;-70
2022/05/18 09:50:42;;;;;;;6.90;3.30;;;24.90;99.90;;;;;;4968086;28;21095;-69
2022/05/18 09:53:11;;;;;;;3.37;2.80;;;25.00;99.90;;;;;;4968433;28;20465;-68
2022/05/18 09:55:38;;;;;;;6.73;2.40;;;25.10;99.90;;;;;;4967617;28;20470;-68
2022/05/18 09:58:10;;;;;;;3.33;2.77;;;25.10;99.90;;;;;;4968009;28;20465;-68
2022/05/18 10:00:38;;;;;;;3.70;3.03;;;25.20;99.90;;;;;;4967946;28;20528;-70
2022/05/18 10:08:52;;;;;;;4.73;2.30;;;25.50;99.90;;;;;;4967759;28;20546;-70
2022/05/18 10:11:22;;;;;;;4.90;2.30;;;25.60;99.90;;;;;;4967520;28;20488;-69
2022/05/18 10:14:08;;;;;;;5.13;2.57;;;25.70;99.90;;;;;;4967870;28;20508;-69
2022/05/18 10:16:40;;;;;;;3.27;2.57;;;25.70;99.90;;;;;;4967808;28;20468;-67
2022/05/18 10:19:15;;;;;;;4.07;2.27;;;25.70;99.90;;;;;;4967522;28;20457;-69
2022/05/18 10:21:51;;;;;;;3.07;2.70;;;25.80;99.90;;;;;;4967768;28;20487;-68
2022/05/18 10:24:33;;;;;;;3.93;2.50;;;25.90;99.90;;;;;;4966915;28;20949;-68
2022/05/18 10:27:17;;;;;;;3.13;2.23;;;25.90;99.90;;;;;;4967700;28;20468;-70
2022/05/18 10:29:50;;;;;;;4.30;2.73;;;25.90;99.90;;;;;;4967787;28;20496;-68
2022/05/18 10:32:22;;;;;;;7.70;2.60;;;26.00;99.90;;;;;;4967511;28;20576;-71
2022/05/18 10:34:51;;;;;;;5.20;2.50;;;26.10;99.90;;;;;;4966883;28;20555;-69
2022/05/18 10:37:26;;;;;;;5.13;2.40;;;26.10;99.90;;;;;;4967352;28;20453;-71
2022/05/18 10:39:58;;;;;;;5.20;2.13;;;26.20;99.90;;;;;;4967435;28;20551;-69
2022/05/18 10:42:29;;;;;;;4.00;2.07;;;26.20;99.90;;;;;;4967330;28;20468;-70
2022/05/18 10:44:58;;;;;;;3.03;2.27;;;26.30;99.90;;;;;;4966805;28;20457;-69
2022/05/18 10:47:31;;;;;;;2.83;2.37;;;26.40;99.90;;;;;;4967356;28;20583;-72
2022/05/18 10:50:24;;;;;;;2.17;1.90;;;26.50;99.90;;;;;;4966795;28;20528;-75
2022/05/18 10:52:51;;;;;;;2.57;2.00;;;26.60;99.90;;;;;;4967801;28;20469;-75
2022/05/18 10:55:22;;;;;;;5.90;2.30;;;26.70;99.90;;;;;;4967399;28;20464;-75
2022/05/18 10:57:57;;;;;;;3.23;2.67;;;26.70;99.90;;;;;;4968119;28;20468;-76
2022/05/18 11:00:29;;;;;;;2.77;1.90;;;26.70;99.90;;;;;;4967694;28;20471;-74
2022/05/18 11:03:04;;;;;;;4.23;2.30;;;26.80;99.90;;;;;;4968010;28;20445;-74
2022/05/18 11:05:40;;;;;;;4.60;2.20;;;26.90;99.90;;;;;;4967167;28;20550;-74
2022/05/18 11:08:13;;;;;;;3.07;2.00;;;26.90;99.90;;;;;;4968182;28;20493;-74
2022/05/18 11:10:49;;;;;;;3.00;2.10;;;27.00;99.90;;;;;;4967861;28;20595;-75
2022/05/18 11:13:25;;;;;;;3.10;2.20;;;27.10;99.90;;;;;;4968022;28;20898;-74
2022/05/18 11:15:59;;;;;;;3.30;2.40;;;27.20;99.90;;;;;;4966687;28;20460;-74
2022/05/18 11:18:35;;;;;;;3.43;2.00;;;27.20;99.90;;;;;;4965749;28;20456;-76
2022/05/18 11:21:12;;;;;;;2.97;2.40;;;27.20;99.90;;;;;;4966531;28;20566;-76
2022/05/18 11:23:48;;;;;;;3.47;2.03;;;27.30;99.90;;;;;;4965680;28;20468;-76
2022/05/18 11:26:31;;;;;;;3.70;2.33;;;27.30;99.90;;;;;;4965193;28;20551;-77
2022/05/18 11:29:05;;;;;;;2.30;1.90;;;27.50;99.90;;;;;;4965938;28;20496;-76
2022/05/18 11:31:50;;;;;;;5.00;2.10;;;27.60;99.90;;;;;;4965288;28;20484;-77
2022/05/18 11:34:25;;;;;;;4.67;2.10;;;27.60;99.90;;;;;;4965154;28;20961;-76
2022/05/18 11:37:07;;;;;;;5.10;2.13;;;27.70;99.90;;;;;;4965436;28;20887;-77
2022/05/18 11:39:45;;;;;;;4.17;2.20;;;27.70;99.90;;;;;;4966012;28;20486;-77
2022/05/18 11:42:23;;;;;;;3.60;1.83;;;27.80;99.90;;;;;;4966030;28;20486;-77
2022/05/18 11:45:04;;;;;;;4.20;2.53;;;27.70;99.90;;;;;;4965389;28;20495;-77
2022/05/18 11:47:57;;;;;;;3.60;2.00;;;27.80;99.90;;;;;;4966290;28;20841;-76
2022/05/18 11:50:32;;;;;;;3.60;1.90;;;27.80;99.90;;;;;;4969945;28;20559;-77
2022/05/18 11:53:11;;;;;;;3.67;2.00;;;27.90;99.90;;;;;;4971038;28;20459;-77
2022/05/18 11:55:59;;;;;;;3.67;2.23;;;27.90;99.90;;;;;;4970325;28;20844;-78
2022/05/18 11:58:50;;;;;;;3.47;2.20;;;27.90;99.90;;;;;;4971135;28;20555;-76
2022/05/18 12:01:30;;;;;;;2.93;2.17;;;27.90;99.90;;;;;;4970162;28;20892;-78
2022/05/18 12:04:41;;;;;;;6.43;2.20;;;28.00;99.90;;;;;;4970017;28;20498;-77
2022/05/18 12:07:24;;;;;;;5.23;2.70;;;28.10;99.90;;;;;;4929435;29;20458;-76
2022/05/18 12:10:16;;;;;;;3.37;2.13;;;28.10;99.90;;;;;;4929524;29;21188;-78
2022/05/18 12:12:49;;;;;;;3.30;2.07;;;28.20;99.90;;;;;;4961655;28;20967;-77
2022/05/18 12:15:22;;;;;;;3.43;2.33;;;28.30;99.90;;;;;;4969453;28;20478;-77
2022/05/18 12:17:55;;;;;;;3.03;2.40;;;28.40;99.90;;;;;;4969906;28;20571;-78
2022/05/18 12:20:28;;;;;;;4.93;2.30;;;28.40;99.90;;;;;;4970056;28;20483;-77
2022/05/18 12:22:59;;;;;;;4.20;2.10;;;28.40;99.90;;;;;;4970059;28;21028;-79
2022/05/18 12:25:29;;;;;;;3.50;2.53;;;28.50;99.90;;;;;;4969341;28;20557;-77
2022/05/18 12:27:59;;;;;;;3.37;2.20;;;28.50;99.90;;;;;;4969805;28;20953;-78
2022/05/18 12:30:30;;;;;;;4.70;2.43;;;28.70;99.90;;;;;;4969593;28;20492;-79
2022/05/18 12:32:58;;;;;;;6.37;2.90;;;28.80;99.90;;;;;;4969598;28;20464;-78
2022/05/18 12:35:31;;;;;;;2.90;2.60;;;28.80;99.90;;;;;;4969312;28;20464;-78
2022/05/18 12:38:06;;;;;;;2.93;2.30;;;28.80;99.90;;;;;;4969367;28;21332;-78
2022/05/18 12:40:36;;;;;;;3.40;2.23;;;28.70;99.90;;;;;;4969790;28;20857;-77
2022/05/18 12:43:14;;;;;;;2.40;2.17;;;28.70;99.90;;;;;;4969713;28;20473;-78
2022/05/18 12:45:44;;;;;;;2.20;2.00;;;28.80;99.90;;;;;;4969200;28;20466;-77
2022/05/18 12:48:21;;;;;;;2.37;2.17;;;28.80;99.90;;;;;;4969587;28;20468;-78
2022/05/18 12:51:05;;;;;;;2.20;2.00;;;28.70;99.90;;;;;;4969484;28;20559;-76
2022/05/18 12:53:46;;;;;;;3.17;2.37;;;28.70;99.90;;;;;;4969420;28;21228;-76
2022/05/18 12:56:18;;;;;;;5.43;2.60;;;28.80;99.90;;;;;;4969415;28;20551;-76
2022/05/18 12:58:53;;;;;;;5.50;2.77;;;28.90;99.90;;;;;;4969877;28;20456;-69
2022/05/18 13:01:22;;;;;;;6.20;3.40;;;28.90;99.90;;;;;;4969243;28;20523;-68
2022/05/18 13:04:00;;;;;;;8.50;3.13;;;29.00;99.90;;;;;;4988353;28;20455;-71
2022/05/18 13:06:40;;;;;;;3.30;2.13;;;29.10;99.90;;;;;;4987960;28;20498;-68
2022/05/18 13:09:24;;;;;;;11.10;5.47;;;29.30;99.90;;;;;;4988435;28;20495;-67
2022/05/18 13:11:55;;;;;;;6.03;2.57;;;29.30;99.90;;;;;;4983228;28;20472;-68
2022/05/18 13:14:32;;;;;;;12.30;4.73;;;29.30;99.90;;;;;;4968272;28;20457;-69
2022/05/18 13:17:20;;;;;;;4.33;2.83;;;29.40;99.90;;;;;;4969021;28;20528;-72
2022/05/18 13:19:55;;;;;;;4.80;2.93;;;29.40;99.90;;;;;;4969074;28;20456;-72
2022/05/18 13:22:47;;;;;;;4.80;2.93;;;29.40;99.90;;;;;;4968671;28;20471;-72
2022/05/18 13:25:14;;;;;;;3.80;2.80;;;29.40;99.90;;;;;;4968241;28;20994;-71
2022/05/18 13:27:49;;;;;;;6.63;3.73;;;29.40;99.90;;;;;;4968584;28;20823;-71
2022/05/18 13:30:24;;;;;;;4.60;2.70;;;29.50;99.90;;;;;;4968478;28;20614;-69
2022/05/18 13:32:53;;;;;;;4.60;2.70;;;29.60;99.90;;;;;;4968486;28;20960;-71
2022/05/18 13:35:22;;;;;;;4.13;2.73;;;29.60;99.90;;;;;;4967870;28;20547;-71
2022/05/18 13:37:53;;;;;;;9.93;3.33;;;29.70;99.90;;;;;;4968276;28;20984;-71
2022/05/18 13:40:22;;;;;;;7.37;2.73;;;29.70;99.90;;;;;;4968466;28;20543;-70
2022/05/18 13:42:49;;;;;;;2.70;2.50;;;29.70;99.90;;;;;;4968458;28;20487;-71
2022/05/18 13:45:16;;;;;;;4.47;2.53;;;29.80;99.90;;;;;;4965869;28;20544;-70
2022/05/18 13:47:47;;;;;;;3.90;2.60;;;29.80;99.90;;;;;;4967928;28;20460;-71
2022/05/18 13:50:24;;;;;;;5.40;2.67;;;30.00;99.90;;;;;;4968226;28;20587;-71
2022/05/18 13:52:53;;;;;;;3.27;2.13;;;30.00;99.90;;;;;;4967659;28;21159;-70
2022/05/18 13:55:22;;;;;;;10.40;3.60;;;29.90;99.90;;;;;;4967156;28;20476;-71
2022/05/18 13:57:52;;;;;;;3.63;2.53;;;30.00;99.90;;;;;;4967909;28;20465;-74
2022/05/18 14:00:25;;;;;;;4.17;2.37;;;30.00;99.90;;;;;;4967932;28;20460;-76
2022/05/18 14:02:55;;;;;;;3.73;2.50;;;30.00;99.90;;;;;;4968222;28;20492;-72
2022/05/18 14:05:23;;;;;;;4.73;2.17;;;29.80;99.90;;;;;;4967286;28;20461;-68
2022/05/18 14:07:51;;;;;;;5.33;2.63;;;29.80;99.90;;;;;;4967916;28;20523;-69
2022/05/18 14:10:22;;;;;;;4.20;2.63;;;29.70;99.90;;;;;;4967463;28;20492;-69
2022/05/18 14:12:50;;;;;;;4.67;2.40;;;29.70;99.90;;;;;;4967978;28;20472;-69
2022/05/18 14:15:19;;;;;;;3.63;2.20;;;29.70;99.90;;;;;;4967210;28;20464;-70
2022/05/18 14:17:46;;;;;;;2.67;2.47;;;29.60;99.90;;;;;;4968030;28;20464;-69
2022/05/18 14:20:23;;;;;;;3.50;2.40;;;29.60;99.90;;;;;;4967747;28;20506;-69
2022/05/18 14:22:56;;;;;;;2.97;2.30;;;29.60;99.90;;;;;;4967440;28;20906;-69
2022/05/18 14:25:30;;;;;;;3.90;2.80;;;29.60;99.90;;;;;;4967340;28;20470;-68
2022/05/18 14:28:01;;;;;;;3.90;2.97;;;29.70;99.90;;;;;;4967486;28;20511;-68
2022/05/18 14:30:32;;;;;;;4.73;2.47;;;29.70;99.90;;;;;;4967261;28;20859;-68
2022/05/18 14:33:03;;;;;;;5.03;3.00;;;29.70;99.70;;;;;;4967640;28;20558;-68
2022/05/18 14:35:34;;;;;;;4.20;2.60;;;29.70;99.90;;;;;;4966676;28;20567;-68
2022/05/18 14:38:06;;;;;;;3.40;2.73;;;29.70;99.90;;;;;;4967675;28;20452;-68
2022/05/18 14:40:39;;;;;;;8.00;3.00;;;29.80;99.90;;;;;;4967359;28;20863;-69
2022/05/18 14:43:06;;;;;;;3.50;2.60;;;29.80;99.90;;;;;;4967252;28;20964;-69
2022/05/18 14:45:43;;;;;;;5.13;3.20;;;29.80;99.90;;;;;;4966198;28;20551;-68
2022/05/18 14:48:19;;;;;;;4.10;2.47;;;29.90;99.90;;;;;;4967332;28;20507;-68
2022/05/18 14:50:49;;;;;;;6.67;2.73;;;29.90;99.90;;;;;;4967315;28;20510;-68
2022/05/18 14:53:29;;;;;;;16.30;3.70;;;29.90;99.90;;;;;;4967143;28;20492;-71
2022/05/18 14:56:03;;;;;;;4.30;2.60;;;30.00;99.90;;;;;;4966442;28;20999;-71
2022/05/18 14:58:33;;;;;;;2.80;2.17;;;30.10;99.90;;;;;;4967114;28;20472;-70
2022/05/18 15:01:03;;;;;;;4.30;2.40;;;30.00;99.70;;;;;;4966832;28;20575;-67
2022/05/18 15:03:32;;;;;;;3.07;1.90;;;30.00;99.90;;;;;;4965349;28;20545;-68
2022/05/18 15:06:00;;;;;;;6.10;2.50;;;30.00;98.90;;;;;;4965251;28;20461;-68
2022/05/18 15:08:34;;;;;;;5.27;2.37;;;30.10;99.90;;;;;;4965972;28;20890;-68
2022/05/18 15:11:07;;;;;;;3.03;2.30;;;30.00;99.90;;;;;;4966015;28;20487;-68
2022/05/18 15:13:41;;;;;;;5.90;2.30;;;30.10;98.40;;;;;;4966018;28;20982;-68
2022/05/18 15:16:10;;;;;;;4.80;2.47;;;30.10;99.80;;;;;;4964485;28;20547;-68
2022/05/18 15:18:42;;;;;;;5.00;2.33;;;30.10;99.90;;;;;;4965648;28;20468;-68
2022/05/18 15:21:19;;;;;;;3.00;2.13;;;30.20;99.90;;;;;;4965139;28;20540;-68
2022/05/18 15:23:54;;;;;;;5.30;2.20;;;30.20;98.40;;;;;;4964780;28;21029;-68
2022/05/18 15:26:24;;;;;;;3.57;2.50;;;30.20;99.60;;;;;;4965116;28;20933;-69
2022/05/18 15:28:57;;;;;;;2.63;1.90;;;30.30;99.90;;;;;;4965527;28;20461;-68
2022/05/18 15:31:28;;;;;;;3.97;2.37;;;30.40;99.50;;;;;;4965361;28;21031;-68
2022/05/18 15:33:58;;;;;;;3.70;2.23;;;30.40;99.90;;;;;;4965654;28;20468;-68
2022/05/18 15:36:25;;;;;;;2.60;2.10;;;30.40;99.80;;;;;;4965228;28;20552;-68
2022/05/18 15:38:56;;;;;;;3.10;2.50;;;30.40;99.40;;;;;;4965736;28;20463;-68
2022/05/18 15:41:23;;;;;;;2.93;2.40;;;30.50;98.70;;;;;;4965411;28;20484;-68
2022/05/18 15:43:50;;;;;;;5.17;2.57;;;30.50;98.80;;;;;;4966314;28;20467;-68
2022/05/18 15:46:26;;;;;;;4.30;2.33;;;30.50;98.90;;;;;;4967187;28;20464;-68
2022/05/18 15:48:53;;;;;;;2.83;2.57;;;30.50;98.50;;;;;;4968213;28;20468;-68
2022/05/18 15:51:22;;;;;;;6.40;2.53;;;30.50;99.60;;;;;;4967972;28;20504;-69
2022/05/18 15:53:59;;;;;;;3.00;2.70;;;30.60;98.90;;;;;;4967321;28;20527;-74
2022/05/18 15:56:28;;;;;;;4.10;2.70;;;30.60;99.20;;;;;;4967340;28;20556;-66
2022/05/18 15:58:55;;;;;;;9.00;2.93;;;30.60;99.30;;;;;;4967775;28;20475;-67
2022/05/18 16:01:23;;;;;;;2.27;2.07;;;30.60;99.30;;;;;;4967012;28;21233;-67
2022/05/18 16:03:50;;;;;;;3.57;2.30;;;30.60;98.50;;;;;;4967373;28;20984;-67
2022/05/18 16:06:23;;;;;;;3.47;2.37;;;30.60;98.40;;;;;;4967670;28;20547;-69
2022/05/18 16:08:50;;;;;;;16.23;3.30;;;30.60;97.80;;;;;;4967492;28;20757;-67
2022/05/18 16:11:19;;;;;;;7.67;3.27;;;30.60;98.80;;;;;;4966449;28;20496;-68
2022/05/18 16:13:46;;;;;;;2.90;2.40;;;30.60;99.30;;;;;;4967817;28;20472;-69
2022/05/18 16:16:13;;;;;;;3.70;2.50;;;30.70;97.90;;;;;;4966938;28;20456;-69
2022/05/18 16:18:40;;;;;;;5.87;2.70;;;30.60;98.90;;;;;;4967234;28;20941;-68
2022/05/18 16:21:08;;;;;;;6.97;2.97;;;30.60;97.50;;;;;;4966711;28;20567;-68
2022/05/18 16:23:36;;;;;;;3.80;2.90;;;30.60;97.20;;;;;;4966885;28;20464;-73
2022/05/18 16:26:03;;;;;;;2.90;2.40;;;30.60;97.80;;;;;;4966262;28;20468;-68
2022/05/18 16:28:32;;;;;;;4.17;2.40;;;30.50;96.80;;;;;;4966868;28;20944;-68
2022/05/18 16:31:00;;;;;;;6.03;2.57;;;30.50;97.60;;;;;;4967893;28;20591;-73
2022/05/18 16:33:29;;;;;;;4.40;2.90;;;30.50;97.50;;;;;;4967328;28;21001;-73
2022/05/18 16:35:56;;;;;;;3.20;2.50;;;30.40;97.70;;;;;;4969912;28;20871;-75
2022/05/18 16:38:23;;;;;;;2.80;2.60;;;30.30;96.90;;;;;;4970464;28;20464;-80
2022/05/18 16:40:53;;;;;;;6.90;3.20;;;30.30;97.50;;;;;;4970542;28;21345;-76
2022/05/18 16:43:21;;;;;;;3.50;2.73;;;30.20;97.10;;;;;;4970892;28;20460;-74
2022/05/18 16:45:49;;;;;;;4.10;2.63;;;30.20;97.50;;;;;;4969495;28;20470;-73
2022/05/18 16:48:16;;;;;;;6.40;2.70;;;30.10;97.80;;;;;;4971280;28;20449;-73
2022/05/18 16:50:43;;;;;;;6.80;2.80;;;30.00;97.90;;;;;;4971594;28;20595;-75
2022/05/18 16:53:10;;;;;;;3.30;2.40;;;29.90;98.40;;;;;;4971968;28;20583;-79
2022/05/18 16:55:37;;;;;;;4.43;2.60;;;29.80;98.30;;;;;;4971214;28;20539;-73
2022/05/18 16:58:03;;;;;;;4.50;2.97;;;29.80;98.10;;;;;;4972340;28;20891;-74
2022/05/18 17:00:33;;;;;;;2.93;2.30;;;29.70;97.70;;;;;;4972403;28;21408;-77
2022/05/18 17:03:01;;;;;;;7.33;2.60;;;29.60;97.50;;;;;;4972357;28;20451;-79
2022/05/18 17:10:57;;;;;;;6.17;2.67;;;29.50;97.40;;;;;;4972204;28;20542;-73
2022/05/18 17:13:26;;;;;;;9.57;2.93;;;29.40;97.90;;;;;;4972179;28;20909;-75
2022/05/18 17:15:53;;;;;;;5.60;4.10;;;29.40;97.90;;;;;;4972417;28;20816;-75
2022/05/18 17:18:21;;;;;;;5.70;3.60;;;29.30;98.40;;;;;;4972269;28;20837;-77
2022/05/18 17:20:48;;;;;;;2.97;2.67;;;29.20;98.20;;;;;;4971709;28;20477;-76
2022/05/18 17:23:16;;;;;;;4.03;2.30;;;29.10;98.80;;;;;;4971627;28;20456;-73
2022/05/18 17:25:44;;;;;;;5.10;2.90;;;29.10;98.50;;;;;;4971099;28;20551;-74